sensor_id;sensor_type;location;lat;lon;timestamp;temperature;humidity
7077;DHT22;3579;48.956;9.154;2022-12-19T00:01:03;21.10;32.50
7077;DHT22;3579;48.956;9.154;2022-12-19T00:03:30;21.10;32.40
7077;DHT22;3579;48.956;9.154;2022-12-19T00:06:00;21.10;32.50
7077;DHT22;3579;48.956;9.154;2022-12-19T00:08:26;21.10;32.50
7077;DHT22;3579;48.956;9.154;2022-12-19T00:10:58;21.10;32.50
7077;DHT22;3579;48.956;9.154;2022-12-19T00:13:24;21.10;32.50
7077;DHT22;3579;48.956;9.154;2022-12-19T00:15:50;21.10;32.50
7077;DHT22;3579;48.956;9.154;2022-12-19T00:18:17;21.10;32.60
7077;DHT22;3579;48.956;9.154;2022-12-19T00:20:43;21.10;32.50
7077;DHT22;3579;48.956;9.154;2022-12-19T00:23:09;21.10;32.60
7077;DHT22;3579;48.956;9.154;2022-12-19T00:25:35;21.10;32.60
7077;DHT22;3579;48.956;9.154;2022-12-19T00:28:04;21.10;32.60
7077;DHT22;3579;48.956;9.154;2022-12-19T00:30:31;21.10;32.60
7077;DHT22;3579;48.956;9.154;2022-12-19T00:32:57;21.10;33.10
7077;DHT22;3579;48.956;9.154;2022-12-19T00:35:23;21.10;32.50
7077;DHT22;3579;48.956;9.154;2022-12-19T00:37:49;21.10;32.50
7077;DHT22;3579;48.956;9.154;2022-12-19T00:40:15;21.10;32.50
7077;DHT22;3579;48.956;9.154;2022-12-19T00:42:42;21.10;32.50
7077;DHT22;3579;48.956;9.154;2022-12-19T00:45:08;21.10;32.50
7077;DHT22;3579;48.956;9.154;2022-12-19T00:47:34;21.10;32.50
7077;DHT22;3579;48.956;9.154;2022-12-19T00:50:01;21.10;32.50
7077;DHT22;3579;48.956;9.154;2022-12-19T00:52:27;21.10;32.40
7077;DHT22;3579;48.956;9.154;2022-12-19T00:54:53;21.10;32.40
7077;DHT22;3579;48.956;9.154;2022-12-19T00:57:19;21.10;32.50
7077;DHT22;3579;48.956;9.154;2022-12-19T00:59:45;21.10;32.50
7077;DHT22;3579;48.956;9.154;2022-12-19T01:02:11;21.10;32.50
7077;DHT22;3579;48.956;9.154;2022-12-19T01:04:37;21.10;32.50
7077;DHT22;3579;48.956;9.154;2022-12-19T01:07:03;21.10;32.60
7077;DHT22;3579;48.956;9.154;2022-12-19T01:09:33;21.10;32.50
7077;DHT22;3579;48.956;9.154;2022-12-19T01:12:00;21.10;32.60
7077;DHT22;3579;48.956;9.154;2022-12-19T01:14:44;21.10;32.50
7077;DHT22;3579;48.956;9.154;2022-12-19T01:17:11;21.10;32.50
7077;DHT22;3579;48.956;9.154;2022-12-19T01:19:37;21.10;32.60
7077;DHT22;3579;48.956;9.154;2022-12-19T01:22:03;21.10;32.60
7077;DHT22;3579;48.956;9.154;2022-12-19T01:24:29;21.10;33.20
7077;DHT22;3579;48.956;9.154;2022-12-19T01:26:55;21.10;32.70
7077;DHT22;3579;48.956;9.154;2022-12-19T01:29:21;21.10;32.60
7077;DHT22;3579;48.956;9.154;2022-12-19T01:31:47;21.10;32.70
7077;DHT22;3579;48.956;9.154;2022-12-19T01:34:13;21.10;32.60
7077;DHT22;3579;48.956;9.154;2022-12-19T01:36:39;21.00;32.60
7077;DHT22;3579;48.956;9.154;2022-12-19T01:39:06;21.10;32.70
7077;DHT22;3579;48.956;9.154;2022-12-19T01:41:32;21.10;32.70
7077;DHT22;3579;48.956;9.154;2022-12-19T01:46:42;21.10;33.20
7077;DHT22;3579;48.956;9.154;2022-12-19T01:49:35;21.10;32.70
7077;DHT22;3579;48.956;9.154;2022-12-19T01:52:03;21.10;32.70
7077;DHT22;3579;48.956;9.154;2022-12-19T01:54:32;21.00;32.70
7077;DHT22;3579;48.956;9.154;2022-12-19T01:57:00;21.10;32.70
7077;DHT22;3579;48.956;9.154;2022-12-19T01:59:35;21.10;32.70
7077;DHT22;3579;48.956;9.154;2022-12-19T02:02:20;21.10;32.70
7077;DHT22;3579;48.956;9.154;2022-12-19T02:04:48;21.10;32.70
7077;DHT22;3579;48.956;9.154;2022-12-19T02:07:15;21.00;32.70
7077;DHT22;3579;48.956;9.154;2022-12-19T02:09:44;21.00;32.70
7077;DHT22;3579;48.956;9.154;2022-12-19T02:12:11;21.10;32.80
7077;DHT22;3579;48.956;9.154;2022-12-19T02:14:37;21.10;32.70
7077;DHT22;3579;48.956;9.154;2022-12-19T02:17:10;21.10;32.80
7077;DHT22;3579;48.956;9.154;2022-12-19T02:36:14;21.10;32.80
7077;DHT22;3579;48.956;9.154;2022-12-19T02:39:00;21.10;32.80
7077;DHT22;3579;48.956;9.154;2022-12-19T02:41:38;21.10;32.80
7077;DHT22;3579;48.956;9.154;2022-12-19T02:44:21;21.10;32.80
7077;DHT22;3579;48.956;9.154;2022-12-19T02:46:49;21.10;33.40
7077;DHT22;3579;48.956;9.154;2022-12-19T02:49:15;21.10;32.80
7077;DHT22;3579;48.956;9.154;2022-12-19T02:51:41;21.10;32.80
7077;DHT22;3579;48.956;9.154;2022-12-19T02:54:08;21.10;32.80
7077;DHT22;3579;48.956;9.154;2022-12-19T03:10:02;21.10;32.80
7077;DHT22;3579;48.956;9.154;2022-12-19T03:12:35;21.10;32.90
7077;DHT22;3579;48.956;9.154;2022-12-19T03:15:03;21.10;33.00
7077;DHT22;3579;48.956;9.154;2022-12-19T03:17:34;21.10;33.00
7077;DHT22;3579;48.956;9.154;2022-12-19T03:20:11;21.10;33.00
7077;DHT22;3579;48.956;9.154;2022-12-19T03:22:39;21.10;33.00
7077;DHT22;3579;48.956;9.154;2022-12-19T03:25:05;21.10;33.00
7077;DHT22;3579;48.956;9.154;2022-12-19T03:27:33;21.10;33.00
7077;DHT22;3579;48.956;9.154;2022-12-19T03:30:11;21.10;33.00
7077;DHT22;3579;48.956;9.154;2022-12-19T03:32:39;21.10;33.00
7077;DHT22;3579;48.956;9.154;2022-12-19T03:35:27;21.10;32.90
7077;DHT22;3579;48.956;9.154;2022-12-19T03:37:56;21.10;33.00
7077;DHT22;3579;48.956;9.154;2022-12-19T03:40:26;21.10;32.90
7077;DHT22;3579;48.956;9.154;2022-12-19T03:42:58;21.10;33.00
7077;DHT22;3579;48.956;9.154;2022-12-19T03:46:00;21.10;32.90
7077;DHT22;3579;48.956;9.154;2022-12-19T04:00:19;21.10;33.00
7077;DHT22;3579;48.956;9.154;2022-12-19T04:02:27;21.10;33.50
7077;DHT22;3579;48.956;9.154;2022-12-19T04:04:59;21.10;33.00
7077;DHT22;3579;48.956;9.154;2022-12-19T04:07:26;21.10;33.00
7077;DHT22;3579;48.956;9.154;2022-12-19T04:09:54;21.10;33.00
7077;DHT22;3579;48.956;9.154;2022-12-19T04:12:27;21.10;33.00
7077;DHT22;3579;48.956;9.154;2022-12-19T04:14:55;21.10;33.00
7077;DHT22;3579;48.956;9.154;2022-12-19T04:17:36;21.10;33.00
7077;DHT22;3579;48.956;9.154;2022-12-19T04:20:13;21.10;33.00
7077;DHT22;3579;48.956;9.154;2022-12-19T04:23:03;21.10;33.00
7077;DHT22;3579;48.956;9.154;2022-12-19T04:25:33;21.10;33.00
7077;DHT22;3579;48.956;9.154;2022-12-19T04:28:16;21.10;33.00
7077;DHT22;3579;48.956;9.154;2022-12-19T04:30:43;21.10;33.00
7077;DHT22;3579;48.956;9.154;2022-12-19T04:33:11;21.10;33.00
7077;DHT22;3579;48.956;9.154;2022-12-19T04:35:37;21.10;33.00
7077;DHT22;3579;48.956;9.154;2022-12-19T04:38:03;21.10;33.00
7077;DHT22;3579;48.956;9.154;2022-12-19T04:40:29;21.10;33.00
7077;DHT22;3579;48.956;9.154;2022-12-19T04:42:55;21.10;33.00
7077;DHT22;3579;48.956;9.154;2022-12-19T04:45:21;21.10;33.00
7077;DHT22;3579;48.956;9.154;2022-12-19T04:47:47;21.10;33.00
7077;DHT22;3579;48.956;9.154;2022-12-19T04:50:14;21.20;33.10
7077;DHT22;3579;48.956;9.154;2022-12-19T04:52:40;21.10;33.00
7077;DHT22;3579;48.956;9.154;2022-12-19T04:55:06;21.20;33.10
7077;DHT22;3579;48.956;9.154;2022-12-19T04:57:33;21.10;33.00
7077;DHT22;3579;48.956;9.154;2022-12-19T04:59:59;21.20;33.10
7077;DHT22;3579;48.956;9.154;2022-12-19T05:02:25;21.20;33.10
7077;DHT22;3579;48.956;9.154;2022-12-19T05:04:51;21.20;33.00
7077;DHT22;3579;48.956;9.154;2022-12-19T05:07:17;21.10;33.10
7077;DHT22;3579;48.956;9.154;2022-12-19T05:09:43;21.10;33.00
7077;DHT22;3579;48.956;9.154;2022-12-19T05:12:09;21.10;33.10
7077;DHT22;3579;48.956;9.154;2022-12-19T05:14:35;21.20;33.20
7077;DHT22;3579;48.956;9.154;2022-12-19T05:17:02;21.20;33.20
7077;DHT22;3579;48.956;9.154;2022-12-19T05:19:28;21.10;33.60
7077;DHT22;3579;48.956;9.154;2022-12-19T05:21:54;21.10;33.10
7077;DHT22;3579;48.956;9.154;2022-12-19T05:24:21;21.10;33.10
7077;DHT22;3579;48.956;9.154;2022-12-19T05:26:47;21.20;33.20
7077;DHT22;3579;48.956;9.154;2022-12-19T05:29:14;21.20;33.20
7077;DHT22;3579;48.956;9.154;2022-12-19T05:31:40;21.20;33.10
7077;DHT22;3579;48.956;9.154;2022-12-19T05:34:07;21.20;33.20
7077;DHT22;3579;48.956;9.154;2022-12-19T05:36:33;21.20;33.20
7077;DHT22;3579;48.956;9.154;2022-12-19T05:38:59;21.20;33.10
7077;DHT22;3579;48.956;9.154;2022-12-19T05:41:25;21.20;33.70
7077;DHT22;3579;48.956;9.154;2022-12-19T05:43:54;21.20;33.20
7077;DHT22;3579;48.956;9.154;2022-12-19T05:46:21;21.20;33.20
7077;DHT22;3579;48.956;9.154;2022-12-19T05:48:48;21.20;33.10
7077;DHT22;3579;48.956;9.154;2022-12-19T05:51:14;21.20;33.10
7077;DHT22;3579;48.956;9.154;2022-12-19T05:53:41;21.20;33.10
7077;DHT22;3579;48.956;9.154;2022-12-19T05:56:15;21.20;33.10
7077;DHT22;3579;48.956;9.154;2022-12-19T05:58:42;21.20;33.00
7077;DHT22;3579;48.956;9.154;2022-12-19T06:01:12;21.10;33.00
7077;DHT22;3579;48.956;9.154;2022-12-19T06:03:39;21.20;33.00
7077;DHT22;3579;48.956;9.154;2022-12-19T06:06:08;21.10;33.00
7077;DHT22;3579;48.956;9.154;2022-12-19T06:08:35;21.20;33.00
7077;DHT22;3579;48.956;9.154;2022-12-19T06:11:03;21.10;33.00
7077;DHT22;3579;48.956;9.154;2022-12-19T06:13:30;21.10;32.90
7077;DHT22;3579;48.956;9.154;2022-12-19T06:16:01;21.10;32.90
7077;DHT22;3579;48.956;9.154;2022-12-19T06:18:29;21.10;32.90
7077;DHT22;3579;48.956;9.154;2022-12-19T06:20:59;21.10;32.90
7077;DHT22;3579;48.956;9.154;2022-12-19T06:23:27;21.20;33.00
7077;DHT22;3579;48.956;9.154;2022-12-19T06:25:57;21.10;32.90
7077;DHT22;3579;48.956;9.154;2022-12-19T06:28:25;21.10;32.90
7077;DHT22;3579;48.956;9.154;2022-12-19T06:30:51;21.10;32.90
7077;DHT22;3579;48.956;9.154;2022-12-19T06:33:17;21.10;32.90
7077;DHT22;3579;48.956;9.154;2022-12-19T06:35:43;21.10;32.90
7077;DHT22;3579;48.956;9.154;2022-12-19T06:38:10;21.10;33.00
7077;DHT22;3579;48.956;9.154;2022-12-19T06:40:41;21.10;32.90
7077;DHT22;3579;48.956;9.154;2022-12-19T06:43:25;21.10;32.90
7077;DHT22;3579;48.956;9.154;2022-12-19T06:45:52;21.10;32.90
7077;DHT22;3579;48.956;9.154;2022-12-19T06:48:18;21.10;32.80
7077;DHT22;3579;48.956;9.154;2022-12-19T06:50:44;21.10;32.90
7077;DHT22;3579;48.956;9.154;2022-12-19T06:53:10;21.10;32.90
7077;DHT22;3579;48.956;9.154;2022-12-19T06:55:36;21.10;32.90
7077;DHT22;3579;48.956;9.154;2022-12-19T06:58:03;21.10;33.40
7077;DHT22;3579;48.956;9.154;2022-12-19T07:00:29;21.10;32.80
7077;DHT22;3579;48.956;9.154;2022-12-19T07:02:57;21.10;32.90
7077;DHT22;3579;48.956;9.154;2022-12-19T07:05:25;21.10;32.90
7077;DHT22;3579;48.956;9.154;2022-12-19T07:07:51;21.10;32.90
7077;DHT22;3579;48.956;9.154;2022-12-19T07:10:17;21.10;32.90
7077;DHT22;3579;48.956;9.154;2022-12-19T07:12:43;21.10;32.90
7077;DHT22;3579;48.956;9.154;2022-12-19T07:15:10;21.00;32.90
7077;DHT22;3579;48.956;9.154;2022-12-19T07:17:37;21.10;32.90
7077;DHT22;3579;48.956;9.154;2022-12-19T07:20:03;21.00;32.80
7077;DHT22;3579;48.956;9.154;2022-12-19T07:22:32;21.00;32.80
7077;DHT22;3579;48.956;9.154;2022-12-19T07:25:00;21.00;32.90
7077;DHT22;3579;48.956;9.154;2022-12-19T07:27:27;21.00;32.90
7077;DHT22;3579;48.956;9.154;2022-12-19T07:29:54;21.00;32.80
7077;DHT22;3579;48.956;9.154;2022-12-19T07:32:20;21.00;32.90
7077;DHT22;3579;48.956;9.154;2022-12-19T07:34:47;21.00;32.90
7077;DHT22;3579;48.956;9.154;2022-12-19T07:37:13;21.00;32.80
7077;DHT22;3579;48.956;9.154;2022-12-19T07:39:39;21.00;33.40
7077;DHT22;3579;48.956;9.154;2022-12-19T07:42:05;21.00;34.20
7077;DHT22;3579;48.956;9.154;2022-12-19T07:44:31;21.00;34.90
7077;DHT22;3579;48.956;9.154;2022-12-19T07:46:58;21.10;35.80
7077;DHT22;3579;48.956;9.154;2022-12-19T07:49:24;21.10;35.30
7077;DHT22;3579;48.956;9.154;2022-12-19T07:51:50;21.10;35.50
7077;DHT22;3579;48.956;9.154;2022-12-19T07:54:17;21.10;35.50
7077;DHT22;3579;48.956;9.154;2022-12-19T07:56:43;21.20;35.70
7077;DHT22;3579;48.956;9.154;2022-12-19T07:59:09;21.10;35.90
7077;DHT22;3579;48.956;9.154;2022-12-19T08:01:38;21.10;35.80
7077;DHT22;3579;48.956;9.154;2022-12-19T08:04:04;21.20;35.80
7077;DHT22;3579;48.956;9.154;2022-12-19T08:06:30;21.20;35.80
7077;DHT22;3579;48.956;9.154;2022-12-19T08:08:56;21.20;35.80
7077;DHT22;3579;48.956;9.154;2022-12-19T08:11:22;21.30;35.90
7077;DHT22;3579;48.956;9.154;2022-12-19T08:13:53;21.30;35.90
7077;DHT22;3579;48.956;9.154;2022-12-19T08:16:19;21.30;35.90
7077;DHT22;3579;48.956;9.154;2022-12-19T08:18:45;21.20;36.20
7077;DHT22;3579;48.956;9.154;2022-12-19T08:21:13;21.20;36.20
7077;DHT22;3579;48.956;9.154;2022-12-19T08:23:39;21.30;36.70
7077;DHT22;3579;48.956;9.154;2022-12-19T08:26:09;21.20;36.20
7077;DHT22;3579;48.956;9.154;2022-12-19T08:28:36;21.30;36.30
7077;DHT22;3579;48.956;9.154;2022-12-19T08:31:14;21.30;36.40
7077;DHT22;3579;48.956;9.154;2022-12-19T08:33:41;21.30;36.50
7077;DHT22;3579;48.956;9.154;2022-12-19T08:36:10;21.30;36.50
7077;DHT22;3579;48.956;9.154;2022-12-19T08:38:37;21.30;36.60
7077;DHT22;3579;48.956;9.154;2022-12-19T08:41:06;21.40;36.70
7077;DHT22;3579;48.956;9.154;2022-12-19T08:43:33;21.50;36.40
7077;DHT22;3579;48.956;9.154;2022-12-19T08:45:59;21.50;36.30
7077;DHT22;3579;48.956;9.154;2022-12-19T08:48:25;21.40;36.40
7077;DHT22;3579;48.956;9.154;2022-12-19T08:50:54;21.50;36.30
7077;DHT22;3579;48.956;9.154;2022-12-19T08:53:22;21.60;36.40
7077;DHT22;3579;48.956;9.154;2022-12-19T08:56:01;21.50;36.40
7077;DHT22;3579;48.956;9.154;2022-12-19T08:58:29;21.60;36.30
7077;DHT22;3579;48.956;9.154;2022-12-19T09:01:02;21.60;36.20
7077;DHT22;3579;48.956;9.154;2022-12-19T09:03:34;21.70;36.30
7077;DHT22;3579;48.956;9.154;2022-12-19T09:06:03;21.60;36.20
7077;DHT22;3579;48.956;9.154;2022-12-19T09:08:29;21.70;36.10
7077;DHT22;3579;48.956;9.154;2022-12-19T09:11:00;21.70;35.90
7077;DHT22;3579;48.956;9.154;2022-12-19T09:13:28;21.50;36.10
7077;DHT22;3579;48.956;9.154;2022-12-19T09:16:02;21.60;36.10
7077;DHT22;3579;48.956;9.154;2022-12-19T09:18:28;21.60;36.00
7077;DHT22;3579;48.956;9.154;2022-12-19T09:20:57;21.70;36.00
7077;DHT22;3579;48.956;9.154;2022-12-19T09:23:25;21.70;35.90
7077;DHT22;3579;48.956;9.154;2022-12-19T09:26:00;21.70;35.80
7077;DHT22;3579;48.956;9.154;2022-12-19T09:28:27;21.70;35.80
7077;DHT22;3579;48.956;9.154;2022-12-19T09:30:57;21.70;35.70
7077;DHT22;3579;48.956;9.154;2022-12-19T09:33:24;21.80;35.70
7077;DHT22;3579;48.956;9.154;2022-12-19T09:35:51;21.80;35.60
7077;DHT22;3579;48.956;9.154;2022-12-19T09:38:18;21.80;35.60
7077;DHT22;3579;48.956;9.154;2022-12-19T09:41:05;21.80;35.50
7077;DHT22;3579;48.956;9.154;2022-12-19T09:49:20;21.90;35.40
7077;DHT22;3579;48.956;9.154;2022-12-19T09:52:05;21.90;35.90
7077;DHT22;3579;48.956;9.154;2022-12-19T09:54:37;21.90;35.30
7077;DHT22;3579;48.956;9.154;2022-12-19T09:57:30;21.90;35.20
7077;DHT22;3579;48.956;9.154;2022-12-19T10:00:04;22.00;35.30
7077;DHT22;3579;48.956;9.154;2022-12-19T10:07:38;22.00;35.10
7077;DHT22;3579;48.956;9.154;2022-12-19T10:10:05;22.10;35.80
7077;DHT22;3579;48.956;9.154;2022-12-19T10:15:07;22.20;37.10
7077;DHT22;3579;48.956;9.154;2022-12-19T10:17:57;22.20;37.70
7077;DHT22;3579;48.956;9.154;2022-12-19T10:20:31;22.10;38.70
7077;DHT22;3579;48.956;9.154;2022-12-19T10:26:09;22.20;38.80
7077;DHT22;3579;48.956;9.154;2022-12-19T10:36:24;22.20;39.30
7077;DHT22;3579;48.956;9.154;2022-12-19T10:39:04;22.20;39.20
7077;DHT22;3579;48.956;9.154;2022-12-19T10:41:35;22.20;39.20
7077;DHT22;3579;48.956;9.154;2022-12-19T10:44:06;22.20;39.20
7077;DHT22;3579;48.956;9.154;2022-12-19T10:46:36;22.20;39.20
7077;DHT22;3579;48.956;9.154;2022-12-19T10:49:29;22.20;39.20
7077;DHT22;3579;48.956;9.154;2022-12-19T10:52:02;22.20;39.00
7077;DHT22;3579;48.956;9.154;2022-12-19T10:57:26;22.20;38.90
7077;DHT22;3579;48.956;9.154;2022-12-19T11:00:01;22.20;38.90
7077;DHT22;3579;48.956;9.154;2022-12-19T11:02:38;22.20;38.80
7077;DHT22;3579;48.956;9.154;2022-12-19T11:05:38;22.30;38.80
7077;DHT22;3579;48.956;9.154;2022-12-19T11:13:59;22.30;38.70
7077;DHT22;3579;48.956;9.154;2022-12-19T11:16:07;22.30;38.70
7077;DHT22;3579;48.956;9.154;2022-12-19T11:18:47;22.30;38.80
7077;DHT22;3579;48.956;9.154;2022-12-19T11:29:24;22.40;38.60
7077;DHT22;3579;48.956;9.154;2022-12-19T11:31:58;22.40;38.50
7077;DHT22;3579;48.956;9.154;2022-12-19T11:34:28;22.40;38.40
7077;DHT22;3579;48.956;9.154;2022-12-19T11:37:23;22.40;38.40
7077;DHT22;3579;48.956;9.154;2022-12-19T11:40:30;22.40;38.40
7077;DHT22;3579;48.956;9.154;2022-12-19T11:45:47;22.50;38.40
7077;DHT22;3579;48.956;9.154;2022-12-19T11:48:20;22.50;38.40
7077;DHT22;3579;48.956;9.154;2022-12-19T11:53:49;22.50;38.40
7077;DHT22;3579;48.956;9.154;2022-12-19T11:56:20;22.50;38.40
7077;DHT22;3579;48.956;9.154;2022-12-19T11:58:54;22.50;38.40
7077;DHT22;3579;48.956;9.154;2022-12-19T12:06:53;22.50;38.20
7077;DHT22;3579;48.956;9.154;2022-12-19T12:09:57;22.50;38.20
7077;DHT22;3579;48.956;9.154;2022-12-19T12:18:17;22.50;38.30
7077;DHT22;3579;48.956;9.154;2022-12-19T12:21:00;22.50;38.20
7077;DHT22;3579;48.956;9.154;2022-12-19T12:26:18;22.50;38.20
7077;DHT22;3579;48.956;9.154;2022-12-19T12:42:59;22.50;38.20
7077;DHT22;3579;48.956;9.154;2022-12-19T12:45:38;22.50;38.20
7077;DHT22;3579;48.956;9.154;2022-12-19T12:50:51;22.50;38.20
7077;DHT22;3579;48.956;9.154;2022-12-19T12:53:20;22.50;38.20
7077;DHT22;3579;48.956;9.154;2022-12-19T12:55:48;22.50;38.20
7077;DHT22;3579;48.956;9.154;2022-12-19T13:17:06;22.60;38.20
7077;DHT22;3579;48.956;9.154;2022-12-19T13:24:55;22.60;38.10
7077;DHT22;3579;48.956;9.154;2022-12-19T13:38:14;22.60;38.00
7077;DHT22;3579;48.956;9.154;2022-12-19T13:43:18;22.60;38.00
7077;DHT22;3579;48.956;9.154;2022-12-19T13:51:44;22.50;37.90
7077;DHT22;3579;48.956;9.154;2022-12-19T13:54:28;22.50;37.90
7077;DHT22;3579;48.956;9.154;2022-12-19T13:56:57;22.50;38.00
7077;DHT22;3579;48.956;9.154;2022-12-19T13:59:26;22.50;38.00
7077;DHT22;3579;48.956;9.154;2022-12-19T14:01:53;22.40;38.00
7077;DHT22;3579;48.956;9.154;2022-12-19T14:04:29;22.40;38.00
7077;DHT22;3579;48.956;9.154;2022-12-19T14:07:38;22.40;37.90
7077;DHT22;3579;48.956;9.154;2022-12-19T14:10:16;22.40;37.90
7077;DHT22;3579;48.956;9.154;2022-12-19T14:12:45;22.40;37.90
7077;DHT22;3579;48.956;9.154;2022-12-19T14:15:37;22.40;37.90
7077;DHT22;3579;48.956;9.154;2022-12-19T14:18:21;22.40;37.90
7077;DHT22;3579;48.956;9.154;2022-12-19T14:20:49;22.40;37.90
7077;DHT22;3579;48.956;9.154;2022-12-19T14:23:15;22.40;37.90
7077;DHT22;3579;48.956;9.154;2022-12-19T14:25:49;22.30;37.70
7077;DHT22;3579;48.956;9.154;2022-12-19T14:28:26;22.30;37.80
7077;DHT22;3579;48.956;9.154;2022-12-19T14:31:00;22.30;38.40
7077;DHT22;3579;48.956;9.154;2022-12-19T14:33:33;22.30;37.80
7077;DHT22;3579;48.956;9.154;2022-12-19T14:35:59;22.20;37.70
7077;DHT22;3579;48.956;9.154;2022-12-19T14:38:28;22.30;37.80
7077;DHT22;3579;48.956;9.154;2022-12-19T14:40:57;22.20;37.70
7077;DHT22;3579;48.956;9.154;2022-12-19T14:43:26;22.20;37.70
7077;DHT22;3579;48.956;9.154;2022-12-19T14:48:50;22.10;37.70
7077;DHT22;3579;48.956;9.154;2022-12-19T14:56:50;22.10;37.60
7077;DHT22;3579;48.956;9.154;2022-12-19T15:04:47;22.00;37.70
7077;DHT22;3579;48.956;9.154;2022-12-19T15:07:25;22.00;37.70
7077;DHT22;3579;48.956;9.154;2022-12-19T15:10:09;22.00;37.70
7077;DHT22;3579;48.956;9.154;2022-12-19T15:13:00;21.90;37.70
7077;DHT22;3579;48.956;9.154;2022-12-19T15:18:20;21.90;37.70
7077;DHT22;3579;48.956;9.154;2022-12-19T15:20:48;21.90;37.70
7077;DHT22;3579;48.956;9.154;2022-12-19T15:23:15;21.90;37.70
7077;DHT22;3579;48.956;9.154;2022-12-19T15:25:41;21.90;37.70
7077;DHT22;3579;48.956;9.154;2022-12-19T15:28:22;21.90;37.80
7077;DHT22;3579;48.956;9.154;2022-12-19T15:30:57;21.90;37.80
7077;DHT22;3579;48.956;9.154;2022-12-19T15:33:24;21.90;37.80
7077;DHT22;3579;48.956;9.154;2022-12-19T15:35:50;21.90;37.80
7077;DHT22;3579;48.956;9.154;2022-12-19T15:38:16;21.80;37.70
7077;DHT22;3579;48.956;9.154;2022-12-19T15:40:43;21.80;37.80
7077;DHT22;3579;48.956;9.154;2022-12-19T15:43:30;21.80;37.80
7077;DHT22;3579;48.956;9.154;2022-12-19T15:45:59;21.80;37.80
7077;DHT22;3579;48.956;9.154;2022-12-19T15:48:25;21.80;37.80
7077;DHT22;3579;48.956;9.154;2022-12-19T15:50:51;21.80;38.30
7077;DHT22;3579;48.956;9.154;2022-12-19T15:53:26;21.80;37.80
7077;DHT22;3579;48.956;9.154;2022-12-19T15:55:54;21.70;37.80
7077;DHT22;3579;48.956;9.154;2022-12-19T15:58:21;21.70;37.80
7077;DHT22;3579;48.956;9.154;2022-12-19T16:00:52;21.70;37.80
7077;DHT22;3579;48.956;9.154;2022-12-19T16:03:18;21.70;37.80
7077;DHT22;3579;48.956;9.154;2022-12-19T16:05:45;21.70;37.80
7077;DHT22;3579;48.956;9.154;2022-12-19T16:08:13;21.70;37.80
7077;DHT22;3579;48.956;9.154;2022-12-19T16:10:41;21.70;37.80
7077;DHT22;3579;48.956;9.154;2022-12-19T16:13:17;21.60;37.80
7077;DHT22;3579;48.956;9.154;2022-12-19T16:15:45;21.60;37.80
7077;DHT22;3579;48.956;9.154;2022-12-19T16:18:13;21.60;37.80
7077;DHT22;3579;48.956;9.154;2022-12-19T16:20:40;21.60;37.80
7077;DHT22;3579;48.956;9.154;2022-12-19T16:23:07;21.60;37.80
7077;DHT22;3579;48.956;9.154;2022-12-19T16:25:44;21.60;37.80
7077;DHT22;3579;48.956;9.154;2022-12-19T16:28:16;21.50;37.80
7077;DHT22;3579;48.956;9.154;2022-12-19T16:30:43;21.50;37.80
7077;DHT22;3579;48.956;9.154;2022-12-19T16:33:21;21.60;37.90
7077;DHT22;3579;48.956;9.154;2022-12-19T16:35:48;21.60;37.90
7077;DHT22;3579;48.956;9.154;2022-12-19T16:38:15;21.50;37.80
7077;DHT22;3579;48.956;9.154;2022-12-19T16:40:42;21.50;37.90
7077;DHT22;3579;48.956;9.154;2022-12-19T16:43:29;21.50;37.90
7077;DHT22;3579;48.956;9.154;2022-12-19T16:45:56;21.50;37.90
7077;DHT22;3579;48.956;9.154;2022-12-19T16:48:25;21.50;37.90
7077;DHT22;3579;48.956;9.154;2022-12-19T16:50:52;21.50;37.90
7077;DHT22;3579;48.956;9.154;2022-12-19T16:53:18;21.50;37.90
7077;DHT22;3579;48.956;9.154;2022-12-19T16:55:45;21.50;37.90
7077;DHT22;3579;48.956;9.154;2022-12-19T16:58:20;21.50;37.90
7077;DHT22;3579;48.956;9.154;2022-12-19T17:00:47;21.50;37.90
7077;DHT22;3579;48.956;9.154;2022-12-19T17:05:55;21.50;37.90
7077;DHT22;3579;48.956;9.154;2022-12-19T17:08:22;21.50;37.90
7077;DHT22;3579;48.956;9.154;2022-12-19T17:10:48;21.50;37.90
7077;DHT22;3579;48.956;9.154;2022-12-19T17:13:16;21.50;37.90
7077;DHT22;3579;48.956;9.154;2022-12-19T17:15:45;21.40;37.80
7077;DHT22;3579;48.956;9.154;2022-12-19T17:18:16;21.40;37.90
7077;DHT22;3579;48.956;9.154;2022-12-19T17:20:45;21.40;37.90
7077;DHT22;3579;48.956;9.154;2022-12-19T17:23:17;21.40;37.90
7077;DHT22;3579;48.956;9.154;2022-12-19T17:25:43;21.40;37.90
7077;DHT22;3579;48.956;9.154;2022-12-19T17:28:10;21.40;37.90
7077;DHT22;3579;48.956;9.154;2022-12-19T17:30:38;21.40;37.90
7077;DHT22;3579;48.956;9.154;2022-12-19T17:33:05;21.40;37.90
7077;DHT22;3579;48.956;9.154;2022-12-19T17:35:35;21.40;37.90
7077;DHT22;3579;48.956;9.154;2022-12-19T17:38:02;21.40;37.90
7077;DHT22;3579;48.956;9.154;2022-12-19T17:40:31;21.40;37.90
7077;DHT22;3579;48.956;9.154;2022-12-19T17:42:57;21.40;37.80
7077;DHT22;3579;48.956;9.154;2022-12-19T17:45:26;21.40;37.90
7077;DHT22;3579;48.956;9.154;2022-12-19T17:47:52;21.30;37.80
7077;DHT22;3579;48.956;9.154;2022-12-19T17:50:25;21.30;37.80
7077;DHT22;3579;48.956;9.154;2022-12-19T17:52:52;21.30;37.80
7077;DHT22;3579;48.956;9.154;2022-12-19T17:55:29;21.30;37.90
7077;DHT22;3579;48.956;9.154;2022-12-19T17:57:55;21.30;37.90
7077;DHT22;3579;48.956;9.154;2022-12-19T18:00:25;21.30;37.90
7077;DHT22;3579;48.956;9.154;2022-12-19T18:02:53;21.30;38.00
7077;DHT22;3579;48.956;9.154;2022-12-19T18:05:32;21.30;37.90
7077;DHT22;3579;48.956;9.154;2022-12-19T18:08:01;21.30;37.90
7077;DHT22;3579;48.956;9.154;2022-12-19T18:10:29;21.30;37.90
7077;DHT22;3579;48.956;9.154;2022-12-19T18:12:56;21.20;38.40
7077;DHT22;3579;48.956;9.154;2022-12-19T18:15:23;21.30;37.90
7077;DHT22;3579;48.956;9.154;2022-12-19T18:17:51;21.30;38.00
7077;DHT22;3579;48.956;9.154;2022-12-19T18:22:51;21.20;37.90
7077;DHT22;3579;48.956;9.154;2022-12-19T18:25:29;21.20;37.90
7077;DHT22;3579;48.956;9.154;2022-12-19T18:27:57;21.20;37.90
7077;DHT22;3579;48.956;9.154;2022-12-19T18:30:24;21.20;37.90
7077;DHT22;3579;48.956;9.154;2022-12-19T18:32:58;21.20;37.90
7077;DHT22;3579;48.956;9.154;2022-12-19T18:35:33;21.20;37.90
7077;DHT22;3579;48.956;9.154;2022-12-19T18:38:03;21.20;38.50
7077;DHT22;3579;48.956;9.154;2022-12-19T18:40:29;21.20;37.90
7077;DHT22;3579;48.956;9.154;2022-12-19T18:42:55;21.20;37.90
7077;DHT22;3579;48.956;9.154;2022-12-19T18:45:25;21.20;37.90
7077;DHT22;3579;48.956;9.154;2022-12-19T18:47:58;21.20;37.90
7077;DHT22;3579;48.956;9.154;2022-12-19T18:50:26;21.20;37.90
7077;DHT22;3579;48.956;9.154;2022-12-19T18:52:54;21.20;37.90
7077;DHT22;3579;48.956;9.154;2022-12-19T18:55:23;21.10;37.90
7077;DHT22;3579;48.956;9.154;2022-12-19T18:57:50;21.20;37.90
7077;DHT22;3579;48.956;9.154;2022-12-19T19:00:21;21.10;37.90
7077;DHT22;3579;48.956;9.154;2022-12-19T19:02:49;21.10;37.90
7077;DHT22;3579;48.956;9.154;2022-12-19T19:05:21;21.10;37.90
7077;DHT22;3579;48.956;9.154;2022-12-19T19:07:48;21.10;37.90
7077;DHT22;3579;48.956;9.154;2022-12-19T19:10:16;21.10;37.90
7077;DHT22;3579;48.956;9.154;2022-12-19T19:12:42;21.10;38.00
7077;DHT22;3579;48.956;9.154;2022-12-19T19:15:08;21.00;37.90
7077;DHT22;3579;48.956;9.154;2022-12-19T19:17:34;21.00;37.90
7077;DHT22;3579;48.956;9.154;2022-12-19T19:20:01;21.00;37.90
7077;DHT22;3579;48.956;9.154;2022-12-19T19:22:28;21.00;38.00
7077;DHT22;3579;48.956;9.154;2022-12-19T19:24:54;21.00;38.00
7077;DHT22;3579;48.956;9.154;2022-12-19T19:27:20;21.00;38.00